Terminal Aerodrome Forecast
Issued by NWS

Home | Current Version | Previous Version | Text Only | Print | Product List | Glossary On
Versions: 1 2 3 4 5 6 7 8 9 10 11 12 13
544
FTUS45 KRIW 241727
TAFCOD
TAF
KCOD 241727Z 2418/2518 25012G20KT P6SM SCT090
     FM242100 26015G25KT P6SM VCTS SCT060CB BKN150
     FM250200 21006KT P6SM VCSH SCT060 BKN150
     FM251000 VRB06KT P6SM SCT150
      AMD LTD TO CLD VIS AND WIND=

USA.gov is the U.S. government's official web portal to all federal, state and local government web resources and services.